Time;durP1;ratioP1;P1;durP2;ratioP2;P2;SDS_P1;SDS_P2;PMS_P1;PMS_P2;Temp;Humidity;BMP_temperature;BMP_pressure;BME280_temperature;BME280_humidity;BME280_pressure;Samples;Min_cycle;Max_cycle;Signal;HPM_P1;HPM_P2
2024/01/24 00:01:35;;;;;;;3.10;0.90;;;;;;;8.24;67.90;97468.50;6217024;23;20023;-78
2024/01/24 00:04:03;;;;;;;2.47;0.80;;;;;;;8.28;67.37;97480.25;6217655;23;20417;-78
2024/01/24 00:06:31;;;;;;;3.53;0.60;;;;;;;8.30;68.21;97474.91;6218680;23;20017;-78
2024/01/24 00:08:58;;;;;;;3.10;0.88;;;;;;;8.32;67.90;97460.00;6217137;23;20087;-78
2024/01/24 00:11:26;;;;;;;2.33;0.80;;;;;;;8.35;67.66;97480.47;6217247;23;20099;-78
2024/01/24 00:13:55;;;;;;;1.88;0.60;;;;;;;8.37;67.20;97479.38;6217278;23;20411;-78
2024/01/24 00:16:22;;;;;;;4.05;0.70;;;;;;;8.40;67.42;97457.47;6217197;23;20031;-78
2024/01/24 00:18:50;;;;;;;2.92;1.20;;;;;;;8.41;67.68;97446.13;6216506;23;20504;-79
2024/01/24 00:21:18;;;;;;;4.30;0.75;;;;;;;8.43;66.99;97446.81;6216472;23;20017;-78
2024/01/24 00:23:45;;;;;;;3.38;0.75;;;;;;;8.45;66.53;97445.69;6216689;23;20021;-78
2024/01/24 00:26:13;;;;;;;2.60;0.60;;;;;;;8.49;66.74;97455.81;6217094;23;20124;-78
2024/01/24 00:28:40;;;;;;;2.85;0.98;;;;;;;8.52;66.54;97438.13;6216643;23;20480;-78
2024/01/24 00:31:09;;;;;;;2.00;0.77;;;;;;;8.57;65.96;97450.66;6216978;23;20020;-78
2024/01/24 00:33:37;;;;;;;2.28;0.80;;;;;;;8.61;65.69;97439.00;6216713;23;20056;-78
2024/01/24 00:36:05;;;;;;;1.67;0.60;;;;;;;8.64;65.21;97428.31;6216953;23;20025;-78
2024/01/24 00:38:32;;;;;;;1.20;0.55;;;;;;;8.68;65.93;97410.63;6216794;23;20020;-78
2024/01/24 00:41:00;;;;;;;2.33;0.75;;;;;;;8.70;66.19;97406.91;6216832;23;20060;-78
2024/01/24 00:43:27;;;;;;;5.13;0.70;;;;;;;8.74;66.29;97397.03;6217217;23;20020;-78
2024/01/24 00:45:55;;;;;;;2.40;0.80;;;;;;;8.75;66.13;97414.28;6216949;23;20023;-78
2024/01/24 00:48:25;;;;;;;1.23;0.70;;;;;;;8.78;65.96;97413.97;6216497;23;20017;-78
2024/01/24 00:50:53;;;;;;;4.57;1.45;;;;;;;8.80;66.12;97414.63;6217036;23;20025;-78
2024/01/24 00:53:21;;;;;;;2.50;0.52;;;;;;;8.84;66.74;97421.19;6216351;23;20024;-79
2024/01/24 00:55:49;;;;;;;2.53;0.80;;;;;;;8.89;66.88;97413.72;6216570;23;20407;-78
2024/01/24 00:58:16;;;;;;;1.45;0.47;;;;;;;8.93;67.21;97391.63;6216097;23;20387;-78
2024/01/24 01:00:44;;;;;;;3.47;0.38;;;;;;;8.96;67.43;97401.72;6216731;23;20027;-78
2024/01/24 01:03:12;;;;;;;2.65;0.20;;;;;;;8.99;66.77;97393.63;6216029;23;20059;-78
2024/01/24 01:05:41;;;;;;;3.05;0.73;;;;;;;9.02;67.34;97395.13;6216369;23;20104;-78
2024/01/24 01:08:08;;;;;;;2.90;0.85;;;;;;;9.02;67.48;97406.34;6216041;23;20024;-78
2024/01/24 01:10:36;;;;;;;1.95;0.57;;;;;;;9.03;67.80;97413.19;6215995;23;20478;-78
2024/01/24 01:13:04;;;;;;;3.40;0.80;;;;;;;9.07;67.50;97404.13;6215839;23;20017;-78
2024/01/24 01:15:31;;;;;;;1.67;0.40;;;;;;;9.09;67.13;97401.34;6216518;23;20044;-78
2024/01/24 01:17:59;;;;;;;3.13;0.73;;;;;;;9.14;66.92;97406.09;6218649;23;20044;-78
2024/01/24 01:20:27;;;;;;;1.45;0.50;;;;;;;9.17;67.34;97393.59;6218365;23;20090;-78
2024/01/24 01:22:55;;;;;;;3.22;0.60;;;;;;;9.20;67.31;97406.28;6228540;23;20068;-78
2024/01/24 01:25:23;;;;;;;1.67;0.95;;;;;;;9.24;67.91;97378.19;6242936;23;20035;-77
2024/01/24 01:27:51;;;;;;;1.27;0.70;;;;;;;9.26;67.59;97397.06;6243843;23;20020;-77
2024/01/24 01:30:18;;;;;;;3.00;0.85;;;;;;;9.28;68.16;97389.91;6243304;23;20043;-78
2024/01/24 01:32:46;;;;;;;3.72;0.88;;;;;;;9.30;68.20;97400.19;6233256;23;20070;-78
2024/01/24 01:35:14;;;;;;;2.70;0.52;;;;;;;9.31;67.88;97397.41;6218453;23;20024;-78
2024/01/24 01:37:41;;;;;;;3.08;0.70;;;;;;;9.35;67.52;97396.13;6216133;23;20135;-78
2024/01/24 01:40:11;;;;;;;4.28;0.80;;;;;;;9.38;67.56;97398.44;6217290;23;20103;-78
2024/01/24 01:42:43;;;;;;;2.20;0.73;;;;;;;9.41;66.92;97394.72;6215822;23;20100;-78
2024/01/24 01:45:11;;;;;;;2.58;1.05;;;;;;;9.42;67.59;97381.53;6215965;23;20552;-78
2024/01/24 01:47:39;;;;;;;4.80;0.55;;;;;;;9.43;67.48;97385.78;6215936;23;20025;-78
2024/01/24 01:50:10;;;;;;;3.25;0.50;;;;;;;9.44;66.53;97384.78;6216560;23;20024;-78
2024/01/24 01:52:38;;;;;;;2.50;0.50;;;;;;;9.46;67.24;97375.03;6215768;23;20024;-78
2024/01/24 01:55:08;;;;;;;3.70;1.13;;;;;;;9.48;66.78;97383.50;6215951;23;20024;-78
2024/01/24 01:57:39;;;;;;;4.28;0.77;;;;;;;9.51;65.88;97371.97;6215931;23;20052;-78
2024/01/24 02:00:09;;;;;;;3.70;0.73;;;;;;;9.52;66.13;97381.41;6216138;23;20017;-78
2024/01/24 02:02:37;;;;;;;3.25;0.88;;;;;;;9.53;67.14;97366.59;6215859;23;20024;-78
2024/01/24 02:05:06;;;;;;;1.58;0.50;;;;;;;9.52;67.45;97355.38;6216049;23;20021;-79
2024/01/24 02:07:34;;;;;;;2.88;0.70;;;;;;;9.52;67.22;97367.59;6215418;23;20023;-78
2024/01/24 02:10:02;;;;;;;1.85;0.73;;;;;;;9.52;66.55;97365.78;6216095;23;20079;-78
2024/01/24 02:12:29;;;;;;;2.30;0.50;;;;;;;9.53;66.28;97372.63;6215592;23;20025;-78
2024/01/24 02:14:58;;;;;;;3.45;0.57;;;;;;;9.54;67.36;97352.63;6214964;23;20471;-78
2024/01/24 02:17:26;;;;;;;4.25;0.50;;;;;;;9.55;67.94;97346.41;6216016;23;20051;-78
2024/01/24 02:19:53;;;;;;;3.75;0.77;;;;;;;9.56;67.48;97346.28;6215400;23;20024;-78
2024/01/24 02:22:21;;;;;;;3.50;0.60;;;;;;;9.57;66.96;97350.50;6216003;23;20060;-78
2024/01/24 02:24:50;;;;;;;2.88;0.60;;;;;;;9.59;66.45;97365.97;6216181;23;20099;-78
2024/01/24 02:27:18;;;;;;;2.60;0.60;;;;;;;9.61;66.81;97351.00;6215148;23;20470;-78
2024/01/24 02:29:45;;;;;;;3.40;0.80;;;;;;;9.63;66.80;97356.88;6215749;23;20027;-78
2024/01/24 02:32:13;;;;;;;1.08;0.65;;;;;;;9.62;66.35;97345.66;6215464;23;20100;-78
2024/01/24 02:34:40;;;;;;;1.35;0.50;;;;;;;9.63;66.29;97355.09;6215434;23;20418;-78
2024/01/24 02:37:08;;;;;;;2.47;0.77;;;;;;;9.64;66.42;97353.28;6215417;23;20051;-79
2024/01/24 02:39:36;;;;;;;1.65;0.50;;;;;;;9.64;66.67;97342.88;6215452;23;20048;-78
2024/01/24 02:42:05;;;;;;;2.35;0.60;;;;;;;9.65;66.41;97352.34;6215475;23;20048;-78
2024/01/24 02:44:33;;;;;;;1.17;0.60;;;;;;;9.65;66.52;97344.53;6215387;23;20099;-78
2024/01/24 02:47:00;;;;;;;2.22;0.77;;;;;;;9.63;66.22;97336.84;6220709;23;20028;-78
2024/01/24 02:49:28;;;;;;;3.60;1.27;;;;;;;9.65;66.37;97344.53;6220709;23;20048;-79
2024/01/24 02:52:01;;;;;;;1.38;0.60;;;;;;;9.65;66.77;97336.69;6219957;23;20096;-79
2024/01/24 02:54:29;;;;;;;1.90;0.63;;;;;;;9.67;67.08;97335.56;6215960;23;20025;-78
2024/01/24 02:56:56;;;;;;;5.50;0.82;;;;;;;9.66;66.26;97338.31;6215737;23;20078;-79
2024/01/24 02:59:25;;;;;;;2.47;0.60;;;;;;;9.65;66.66;97321.88;6215346;23;20020;-78
2024/01/24 03:01:53;;;;;;;3.80;0.60;;;;;;;9.63;65.96;97310.81;6215215;23;20017;-77
2024/01/24 03:04:21;;;;;;;2.47;0.93;;;;;;;9.62;66.67;97317.00;6215277;23;20056;-78
2024/01/24 03:06:49;;;;;;;1.75;0.47;;;;;;;9.62;66.30;97313.56;6218928;23;20024;-78
2024/01/24 03:09:16;;;;;;;2.03;0.40;;;;;;;9.61;66.68;97309.34;6240393;23;20036;-78
2024/01/24 03:11:44;;;;;;;1.25;0.40;;;;;;;9.62;66.89;97300.53;6240111;23;20031;-78
2024/01/24 03:14:11;;;;;;;3.83;0.60;;;;;;;9.62;66.45;97319.59;6240169;23;20008;-78
2024/01/24 03:16:40;;;;;;;2.15;0.55;;;;;;;9.62;66.74;97313.56;6234632;23;20074;-78
2024/01/24 03:19:08;;;;;;;2.42;0.50;;;;;;;9.61;66.70;97307.53;6215459;23;20091;-78
2024/01/24 03:21:36;;;;;;;2.25;0.55;;;;;;;9.62;66.95;97318.75;6215464;23;20025;-78
2024/01/24 03:24:03;;;;;;;2.08;0.70;;;;;;;9.61;67.11;97312.75;6215405;23;20024;-79
2024/01/24 03:26:31;;;;;;;1.85;0.30;;;;;;;9.62;67.25;97321.38;6215415;23;20415;-78
2024/01/24 03:28:59;;;;;;;0.93;0.40;;;;;;;9.63;68.33;97336.03;6215383;23;20346;-78
2024/01/24 03:31:26;;;;;;;2.53;0.80;;;;;;;9.64;67.88;97332.44;6215105;23;20404;-78
2024/01/24 03:33:55;;;;;;;2.50;0.75;;;;;;;9.64;68.36;97332.44;6214476;23;20095;-78
2024/01/24 03:36:23;;;;;;;3.13;0.98;;;;;;;9.65;67.84;97326.28;6214969;23;20523;-79
2024/01/24 03:38:50;;;;;;;2.13;0.68;;;;;;;9.65;68.10;97318.47;6215251;23;20025;-78
2024/01/24 03:41:18;;;;;;;3.45;0.50;;;;;;;9.66;67.88;97320.09;6215062;23;20052;-78
2024/01/24 03:43:45;;;;;;;1.23;0.70;;;;;;;9.68;67.81;97338.97;6214941;23;20024;-78
2024/01/24 03:46:13;;;;;;;2.50;0.55;;;;;;;9.67;68.83;97326.94;6215117;23;20066;-78
2024/01/24 03:48:40;;;;;;;2.42;0.70;;;;;;;9.68;69.29;97331.16;6214854;23;20421;-78
2024/01/24 03:51:11;;;;;;;0.90;0.30;;;;;;;9.66;69.00;97346.97;6214826;23;20020;-78
2024/01/24 03:53:38;;;;;;;2.13;0.55;;;;;;;9.67;68.92;97345.19;6214969;23;20043;-78
2024/01/24 03:56:07;;;;;;;2.90;0.50;;;;;;;9.69;69.08;97340.63;6214736;23;20024;-78
2024/01/24 03:58:36;;;;;;;1.20;0.40;;;;;;;9.68;69.43;97318.13;6214965;23;20025;-78
2024/01/24 04:01:04;;;;;;;2.05;0.60;;;;;;;9.69;69.85;97311.97;6214389;23;20051;-78
2024/01/24 04:03:31;;;;;;;1.27;0.30;;;;;;;9.68;69.92;97318.13;6214782;23;20044;-78
2024/01/24 04:05:59;;;;;;;2.00;0.63;;;;;;;9.65;69.92;97323.69;6215076;23;20020;-78
2024/01/24 04:08:28;;;;;;;1.90;0.50;;;;;;;9.64;70.10;97328.09;6214902;23;20021;-78
2024/01/24 04:10:56;;;;;;;1.60;0.57;;;;;;;9.65;70.11;97318.47;6214850;23;20390;-78
2024/01/24 04:13:25;;;;;;;1.13;0.63;;;;;;;9.64;70.23;97312.44;6214780;23;20055;-78
2024/01/24 04:15:52;;;;;;;2.17;0.50;;;;;;;9.63;70.30;97318.63;6215288;23;20397;-78
2024/01/24 04:18:20;;;;;;;1.10;0.93;;;;;;;9.64;70.36;97327.25;6214891;23;20020;-78
2024/01/24 04:20:48;;;;;;;3.03;0.85;;;;;;;9.64;70.73;97309.84;6215066;23;20020;-78
2024/01/24 04:23:15;;;;;;;2.15;0.80;;;;;;;9.64;70.53;97324.63;6214627;23;20017;-78
2024/01/24 04:25:44;;;;;;;2.17;0.57;;;;;;;9.65;70.63;97326.28;6215039;23;20021;-78
2024/01/24 04:28:12;;;;;;;2.10;0.60;;;;;;;9.66;70.67;97315.72;6214853;23;20083;-79
2024/01/24 04:30:39;;;;;;;2.05;0.68;;;;;;;9.69;70.94;97330.22;6214124;23;20063;-77
2024/01/24 04:33:07;;;;;;;2.22;0.75;;;;;;;9.70;71.06;97337.84;6215306;23;20024;-78
2024/01/24 04:35:35;;;;;;;1.17;0.43;;;;;;;9.72;71.14;97342.91;6216853;23;20412;-78
2024/01/24 04:38:02;;;;;;;2.88;0.98;;;;;;;9.74;70.73;97359.19;6216253;23;20541;-78
2024/01/24 04:40:31;;;;;;;4.00;0.77;;;;;;;9.78;70.79;97357.91;6216258;23;20524;-77
2024/01/24 04:43:00;;;;;;;3.08;0.80;;;;;;;9.81;71.16;97348.97;6216171;23;20047;-78
2024/01/24 04:45:27;;;;;;;2.65;0.88;;;;;;;9.82;71.13;97351.41;6216375;23;20060;-78
2024/01/24 04:47:55;;;;;;;5.70;0.90;;;;;;;9.83;71.18;97357.44;6213377;23;20470;-79
2024/01/24 04:50:23;;;;;;;2.90;0.90;;;;;;;9.83;71.34;97353.03;6215992;23;20091;-78
2024/01/24 04:52:51;;;;;;;2.80;0.60;;;;;;;9.85;71.12;97345.88;6216395;23;20514;-77
2024/01/24 04:55:19;;;;;;;1.75;0.43;;;;;;;9.88;71.50;97344.75;6216528;23;20024;-77
2024/01/24 04:57:46;;;;;;;2.05;0.80;;;;;;;9.89;71.42;97334.16;6216266;23;20024;-77
2024/01/24 05:00:16;;;;;;;1.40;0.65;;;;;;;9.93;71.53;97336.44;6216628;23;20079;-78
2024/01/24 05:02:44;;;;;;;1.38;0.55;;;;;;;9.95;71.46;97334.50;6216972;23;20025;-78
2024/01/24 05:05:11;;;;;;;2.05;0.95;;;;;;;9.97;71.74;97338.59;6215190;23;20079;-78
2024/01/24 05:07:39;;;;;;;2.83;0.57;;;;;;;9.99;71.99;97348.84;6216979;23;20044;-76
2024/01/24 05:10:08;;;;;;;2.88;0.93;;;;;;;10.02;71.56;97351.16;6216551;23;20398;-78
2024/01/24 05:12:36;;;;;;;3.20;0.80;;;;;;;10.04;71.52;97338.78;6216735;23;20103;-78
2024/01/24 05:15:04;;;;;;;4.57;0.70;;;;;;;10.08;71.51;97324.44;6216557;23;20025;-78
2024/01/24 05:17:33;;;;;;;3.28;1.02;;;;;;;10.10;71.68;97325.91;6216776;23;20524;-78
2024/01/24 05:20:01;;;;;;;2.35;0.57;;;;;;;10.14;71.63;97333.41;6216637;23;20052;-78
2024/01/24 05:22:29;;;;;;;2.88;0.88;;;;;;;10.16;71.48;97332.25;6215639;23;20017;-77
2024/01/24 05:24:56;;;;;;;4.55;1.20;;;;;;;10.16;71.93;97306.19;6215951;23;20032;-77
2024/01/24 05:27:24;;;;;;;1.60;0.50;;;;;;;10.17;72.00;97312.25;6216513;23;20394;-78
2024/01/24 05:29:52;;;;;;;1.83;0.68;;;;;;;10.19;72.12;97312.88;6216794;23;20083;-77
2024/01/24 05:32:19;;;;;;;1.85;0.73;;;;;;;10.16;72.41;97303.56;6216184;23;20040;-78
2024/01/24 05:34:49;;;;;;;2.15;0.93;;;;;;;10.18;72.76;97330.31;6215556;23;20061;-77
2024/01/24 05:37:17;;;;;;;3.03;1.17;;;;;;;10.17;72.72;97313.03;6216042;23;20078;-77
2024/01/24 05:39:44;;;;;;;3.55;1.00;;;;;;;10.19;72.44;97331.94;6215748;23;20032;-77
2024/01/24 05:42:12;;;;;;;3.78;0.65;;;;;;;10.22;72.55;97326.41;6215999;23;20196;-77
2024/01/24 05:44:40;;;;;;;1.70;0.60;;;;;;;10.25;72.63;97326.06;6215775;23;20025;-78
2024/01/24 05:47:07;;;;;;;3.45;1.05;;;;;;;10.27;72.68;97339.75;6215916;23;20103;-78
2024/01/24 05:49:36;;;;;;;1.98;1.00;;;;;;;10.28;72.84;97333.59;6215413;23;20047;-78
2024/01/24 05:52:06;;;;;;;2.10;0.90;;;;;;;10.27;73.24;97337.16;6216387;23;20032;-78
2024/01/24 05:54:33;;;;;;;27.80;13.18;;;;;;;10.28;73.17;97323.16;6216361;23;20021;-78
2024/01/24 05:57:01;;;;;;;20.08;12.00;;;;;;;10.31;73.46;97319.44;6226154;23;20518;-80
2024/01/24 05:59:29;;;;;;;3.95;1.80;;;;;;;10.31;73.32;97320.25;6221934;23;20025;-79
2024/01/24 06:01:57;;;;;;;3.63;1.10;;;;;;;10.34;73.32;97333.94;6216783;23;20023;-79
2024/01/24 06:04:24;;;;;;;3.00;1.00;;;;;;;10.35;73.23;97346.00;6216129;23;20099;-79
2024/01/24 06:06:54;;;;;;;4.82;1.00;;;;;;;10.36;73.29;97342.41;6216585;23;20028;-79
2024/01/24 06:09:23;;;;;;;2.53;0.70;;;;;;;10.37;73.33;97312.75;6216333;23;20107;-79
2024/01/24 06:11:52;;;;;;;1.40;0.68;;;;;;;10.38;73.27;97303.94;6216480;23;20082;-79
2024/01/24 06:14:21;;;;;;;2.75;0.90;;;;;;;10.41;73.07;97312.28;6229352;23;20068;-80
2024/01/24 06:16:49;;;;;;;1.42;0.80;;;;;;;10.42;73.43;97289.59;6230542;23;20051;-79
2024/01/24 06:19:16;;;;;;;2.65;1.05;;;;;;;10.45;73.63;97310.97;6215637;23;20080;-79
2024/01/24 06:21:54;;;;;;;3.03;0.63;;;;;;;10.46;73.51;97296.94;6232327;23;20031;-80
2024/01/24 06:24:24;;;;;;;4.72;1.35;;;;;;;10.49;73.43;97287.97;6234417;23;20040;-80
2024/01/24 06:26:52;;;;;;;2.75;0.90;;;;;;;10.48;73.48;97275.91;6235979;23;20021;-80
2024/01/24 06:29:20;;;;;;;2.50;1.13;;;;;;;10.53;73.63;97278.84;6231475;23;20020;-79
2024/01/24 06:32:08;;;;;;;2.08;0.90;;;;;;;10.54;74.00;97262.22;6214162;23;20501;-79
2024/01/24 06:34:35;;;;;;;4.35;1.00;;;;;;;10.55;73.88;97256.00;6214597;23;20095;-79
2024/01/24 06:37:03;;;;;;;1.20;0.82;;;;;;;10.57;73.91;97290.56;6215399;23;20052;-78
2024/01/24 06:39:32;;;;;;;4.47;0.80;;;;;;;10.59;74.11;97259.94;6215148;23;20020;-79
2024/01/24 06:41:59;;;;;;;2.60;0.73;;;;;;;10.61;74.24;97273.63;6214961;23;20017;-79
2024/01/24 06:44:27;;;;;;;1.88;0.50;;;;;;;10.66;74.39;97302.63;6215296;23;20115;-79
2024/01/24 06:46:55;;;;;;;0.50;0.40;;;;;;;10.68;74.33;97305.88;6215318;23;20020;-79
2024/01/24 06:49:22;;;;;;;2.33;0.60;;;;;;;10.71;74.34;97297.75;6215010;23;20347;-79
2024/01/24 06:51:51;;;;;;;1.90;0.70;;;;;;;10.72;74.19;97288.94;6215812;23;20020;-79
2024/01/24 06:54:19;;;;;;;0.73;0.63;;;;;;;10.74;74.26;97290.56;6215464;23;20021;-79
2024/01/24 06:56:48;;;;;;;1.38;0.80;;;;;;;10.76;74.21;97312.06;6215070;23;20032;-80
2024/01/24 06:59:15;;;;;;;0.75;0.55;;;;;;;10.76;74.15;97307.69;6215320;23;20024;-79
2024/01/24 07:01:43;;;;;;;2.17;0.73;;;;;;;10.79;74.37;97306.53;6216498;23;20561;-79
2024/01/24 07:04:11;;;;;;;1.88;1.02;;;;;;;10.82;74.48;97314.03;6225578;23;20031;-79
2024/01/24 07:06:39;;;;;;;2.95;0.50;;;;;;;10.83;74.68;97300.81;6232432;23;20020;-79
2024/01/24 07:09:07;;;;;;;0.77;0.77;;;;;;;10.86;74.72;97294.44;6216728;23;20024;-79
2024/01/24 07:11:34;;;;;;;1.88;0.82;;;;;;;10.89;75.05;97301.97;6215509;23;20433;-79
2024/01/24 07:14:04;;;;;;;1.45;0.63;;;;;;;10.89;75.47;97308.00;6214555;23;20024;-79
2024/01/24 07:16:31;;;;;;;1.70;0.45;;;;;;;10.89;75.76;97299.34;6215253;23;20055;-79
2024/01/24 07:18:59;;;;;;;1.10;0.50;;;;;;;10.90;76.19;97303.56;6215248;23;20052;-79
2024/01/24 07:21:26;;;;;;;1.40;0.60;;;;;;;10.88;76.16;97303.75;6215265;23;20044;-79
2024/01/24 07:23:54;;;;;;;1.20;0.45;;;;;;;10.89;76.37;97301.97;6214584;23;20029;-78
2024/01/24 07:26:22;;;;;;;2.78;0.60;;;;;;;10.89;76.39;97292.34;6215215;23;20025;-79
2024/01/24 07:28:49;;;;;;;2.33;0.60;;;;;;;10.90;76.27;97293.13;6214277;23;20056;-79
2024/01/24 07:31:19;;;;;;;3.72;0.70;;;;;;;10.89;76.37;97292.34;6215382;23;20103;-79
2024/01/24 07:33:48;;;;;;;2.83;0.80;;;;;;;10.89;76.38;97270.66;6221026;23;20025;-79
2024/01/24 07:36:15;;;;;;;2.00;0.40;;;;;;;10.90;76.45;97257.41;6221552;23;20025;-78
2024/01/24 07:38:43;;;;;;;1.60;0.55;;;;;;;10.93;76.08;97275.34;6236663;23;20025;-79
2024/01/24 07:41:10;;;;;;;1.08;0.50;;;;;;;10.95;76.04;97251.69;6232938;23;20025;-79
2024/01/24 07:43:38;;;;;;;1.77;0.77;;;;;;;10.97;76.12;97257.53;6216764;23;20047;-79
2024/01/24 07:46:06;;;;;;;0.70;0.30;;;;;;;10.99;75.89;97258.19;6216130;23;20021;-79
2024/01/24 07:48:35;;;;;;;2.28;0.73;;;;;;;11.03;75.73;97261.28;6215180;23;20020;-79
2024/01/24 07:51:04;;;;;;;1.75;0.45;;;;;;;11.05;75.83;97264.56;6215451;23;20020;-79
2024/01/24 07:53:32;;;;;;;0.93;0.70;;;;;;;11.07;75.77;97255.56;6214766;23;20017;-79
2024/01/24 07:56:01;;;;;;;0.88;0.40;;;;;;;11.10;75.41;97259.63;6213937;23;20347;-79
2024/01/24 07:58:47;;;;;;;1.25;0.70;;;;;;;11.14;75.21;97246.06;6215051;23;20103;-78
2024/01/24 08:01:17;;;;;;;1.08;0.50;;;;;;;11.17;74.79;97262.38;6214992;23;20055;-79
2024/01/24 08:03:46;;;;;;;2.05;0.65;;;;;;;11.20;74.62;97255.03;6215573;23;20021;-79
2024/01/24 08:06:17;;;;;;;0.80;0.40;;;;;;;11.25;74.44;97264.97;6216057;23;20028;-79
2024/01/24 08:08:45;;;;;;;2.72;0.50;;;;;;;11.28;74.41;97270.69;6217667;23;20024;-79
2024/01/24 08:11:13;;;;;;;1.55;0.77;;;;;;;11.31;74.04;97272.13;6217887;23;20035;-79
2024/01/24 08:13:41;;;;;;;0.85;0.35;;;;;;;11.35;74.18;97276.03;6218084;23;20493;-79
2024/01/24 08:16:09;;;;;;;3.53;0.60;;;;;;;11.37;74.00;97278.47;6234221;23;20354;-79
2024/01/24 08:18:37;;;;;;;1.10;0.50;;;;;;;11.39;73.81;97268.66;6217538;23;20518;-78
2024/01/24 08:21:07;;;;;;;1.60;0.60;;;;;;;11.42;73.57;97270.94;6217735;23;20035;-78
2024/01/24 08:23:35;;;;;;;0.60;0.40;;;;;;;11.45;73.13;97284.47;6216760;23;20489;-79
2024/01/24 08:26:16;;;;;;;2.50;0.40;;;;;;;11.48;73.18;97281.53;6216947;23;20028;-79
2024/01/24 08:28:44;;;;;;;0.57;0.40;;;;;;;11.50;73.21;97283.94;6216381;23;20047;-81
2024/01/24 08:31:13;;;;;;;0.50;0.47;;;;;;;11.51;73.19;97299.47;6216057;23;20108;-81
2024/01/24 08:33:40;;;;;;;0.40;0.40;;;;;;;11.55;72.73;97286.88;6216258;23;20017;-82
2024/01/24 08:36:10;;;;;;;0.52;0.30;;;;;;;11.59;72.85;97300.41;6217112;23;20027;-81
2024/01/24 08:38:37;;;;;;;0.63;0.20;;;;;;;11.59;72.93;97314.31;6217539;23;20095;-81
2024/01/24 08:41:05;;;;;;;1.05;0.40;;;;;;;11.58;72.93;97307.44;6217360;23;20048;-81
2024/01/24 08:43:32;;;;;;;0.45;0.30;;;;;;;11.60;72.58;97305.47;6217142;23;20023;-79
2024/01/24 08:46:00;;;;;;;0.30;0.30;;;;;;;11.62;72.70;97318.38;6218688;23;20059;-79
2024/01/24 08:48:28;;;;;;;0.50;0.47;;;;;;;11.65;72.46;97328.47;6218213;23;20025;-79
2024/01/24 08:50:56;;;;;;;0.63;0.40;;;;;;;11.67;72.76;97316.84;6218112;23;20027;-79
2024/01/24 08:53:25;;;;;;;1.10;0.28;;;;;;;11.70;72.78;97305.28;6217716;23;20478;-79
2024/01/24 08:55:53;;;;;;;1.67;0.60;;;;;;;11.70;72.88;97302.66;6218614;23;20090;-78
2024/01/24 08:58:20;;;;;;;0.68;0.30;;;;;;;11.70;73.11;97306.06;6223421;23;20025;-79
2024/01/24 09:00:48;;;;;;;1.50;0.40;;;;;;;11.72;72.95;97300.69;6217127;23;20048;-79
2024/01/24 09:03:18;;;;;;;1.02;0.57;;;;;;;11.73;73.18;97278.78;6216790;23;20017;-79
2024/01/24 09:05:46;;;;;;;0.85;0.20;;;;;;;11.73;72.92;97290.03;6218478;23;20055;-79
2024/01/24 09:08:14;;;;;;;0.63;0.40;;;;;;;11.74;72.77;97309.16;6217451;23;20100;-79
2024/01/24 09:10:43;;;;;;;0.38;0.20;;;;;;;11.74;72.81;97307.38;6217455;23;20025;-79
2024/01/24 09:13:11;;;;;;;0.77;0.30;;;;;;;11.74;72.90;97269.94;6217098;23;20016;-79
2024/01/24 09:15:38;;;;;;;0.68;0.35;;;;;;;11.75;72.84;97284.66;6217209;23;20031;-79
2024/01/24 09:18:07;;;;;;;0.32;0.32;;;;;;;11.79;72.99;97303.44;6215677;23;20028;-78
2024/01/24 09:20:35;;;;;;;4.75;0.47;;;;;;;11.80;73.30;97298.00;6217105;23;20025;-79
2024/01/24 09:23:03;;;;;;;1.20;0.30;;;;;;;11.81;73.14;97311.91;6216341;23;20024;-79
2024/01/24 09:25:30;;;;;;;0.63;0.20;;;;;;;11.84;73.03;97322.00;6216637;23;20020;-78
2024/01/24 09:27:59;;;;;;;0.20;0.20;;;;;;;11.84;73.15;97317.59;6216941;23;20028;-79
2024/01/24 09:30:27;;;;;;;0.20;0.20;;;;;;;11.86;72.90;97313.00;6216913;23;20362;-79
2024/01/24 09:32:54;;;;;;;0.75;0.30;;;;;;;11.87;73.16;97327.72;6216993;23;20075;-79
2024/01/24 09:35:23;;;;;;;0.35;0.20;;;;;;;11.86;73.00;97315.63;6217492;23;20024;-79
2024/01/24 09:37:50;;;;;;;0.43;0.20;;;;;;;11.87;73.44;97342.56;6217032;23;20347;-79
2024/01/24 09:40:18;;;;;;;1.55;0.30;;;;;;;11.89;73.58;97319.72;6217343;23;20096;-79
2024/01/24 09:42:46;;;;;;;1.02;0.38;;;;;;;11.89;73.89;97328.38;6217392;23;20024;-78
2024/01/24 09:45:17;;;;;;;0.82;0.70;;;;;;;11.89;74.05;97309.25;6217034;23;20027;-78
2024/01/24 09:47:47;;;;;;;1.02;0.30;;;;;;;11.87;73.80;97313.81;6217126;23;20031;-80
2024/01/24 09:50:15;;;;;;;0.30;0.30;;;;;;;11.88;74.08;97311.06;6216574;23;20100;-79
2024/01/24 09:52:43;;;;;;;0.35;0.30;;;;;;;11.88;74.49;97324.13;6215992;23;20099;-79
2024/01/24 09:55:16;;;;;;;0.15;0.15;;;;;;;11.88;75.10;97323.34;6216688;23;20044;-79
2024/01/24 09:57:46;;;;;;;0.30;0.10;;;;;;;11.86;75.16;97325.28;6216540;23;20056;-78
2024/01/24 10:00:16;;;;;;;0.20;0.20;;;;;;;11.84;75.51;97307.13;6216618;23;20025;-79
2024/01/24 10:02:46;;;;;;;0.40;0.40;;;;;;;11.83;75.66;97300.28;6216319;23;20470;-80
2024/01/24 10:05:17;;;;;;;0.52;0.32;;;;;;;11.84;75.60;97301.09;6217728;23;20455;-79
2024/01/24 10:07:45;;;;;;;0.20;0.20;;;;;;;11.84;75.08;97303.72;6217491;23;20052;-80
2024/01/24 10:10:15;;;;;;;3.03;1.77;;;;;;;11.85;75.07;97308.78;6217302;23;20470;-79
2024/01/24 10:12:43;;;;;;;1.08;0.57;;;;;;;11.85;75.08;97314.00;6216573;23;20458;-80
2024/01/24 10:15:12;;;;;;;0.20;0.20;;;;;;;11.86;75.00;97310.41;6217454;23;20470;-80
2024/01/24 10:17:42;;;;;;;0.65;0.20;;;;;;;11.89;74.68;97314.50;6217557;23;20020;-79
2024/01/24 10:20:12;;;;;;;0.15;0.13;;;;;;;11.91;74.36;97323.78;6216917;23;20617;-79
2024/01/24 10:22:42;;;;;;;0.10;0.10;;;;;;;11.93;74.28;97321.00;6216834;23;20593;-80
2024/01/24 10:25:10;;;;;;;0.43;0.10;;;;;;;11.94;73.96;97297.31;6216726;23;20052;-79
2024/01/24 10:27:39;;;;;;;0.35;0.35;;;;;;;11.96;74.23;97320.69;6216769;23;20465;-80
2024/01/24 10:30:11;;;;;;;0.20;0.10;;;;;;;11.97;74.28;97319.69;6217487;23;20025;-79
2024/01/24 10:32:39;;;;;;;1.13;0.20;;;;;;;11.99;74.08;97319.50;6216438;23;20021;-80
2024/01/24 10:35:09;;;;;;;1.45;0.13;;;;;;;12.00;74.19;97289.75;6226268;23;20024;-80
2024/01/24 10:37:37;;;;;;;0.32;0.32;;;;;;;12.02;73.94;97298.25;6216498;23;20055;-80
2024/01/24 10:40:11;;;;;;;0.75;0.20;;;;;;;12.05;74.15;97287.44;6216143;23;20024;-78
2024/01/24 10:42:41;;;;;;;1.45;0.25;;;;;;;12.04;74.25;97302.31;6222880;23;20028;-80
2024/01/24 10:45:10;;;;;;;0.10;0.10;;;;;;;12.07;74.45;97295.91;6227593;23;20398;-80
2024/01/24 10:47:40;;;;;;;0.35;0.20;;;;;;;12.08;74.91;97293.13;6228255;23;20024;-80
2024/01/24 10:50:10;;;;;;;0.30;0.10;;;;;;;12.07;75.14;97295.91;6227000;23;20032;-80
2024/01/24 10:52:40;;;;;;;0.35;0.10;;;;;;;12.04;75.24;97301.50;6218435;23;20063;-79
2024/01/24 10:55:11;;;;;;;0.20;0.10;;;;;;;12.02;75.50;97290.41;6216791;23;20044;-80
2024/01/24 10:57:41;;;;;;;0.45;0.20;;;;;;;11.99;75.89;97291.56;6217815;23;20016;-78
2024/01/24 11:00:10;;;;;;;1.60;0.10;;;;;;;11.99;75.93;97322.13;6236341;23;20035;-79
2024/01/24 11:02:41;;;;;;;0.20;0.20;;;;;;;12.00;75.58;97311.47;6234101;23;20020;-80
2024/01/24 11:05:18;;;;;;;0.90;0.10;;;;;;;12.02;75.19;97334.84;6217865;23;20021;-80
2024/01/24 11:07:53;;;;;;;0.00;0.00;;;;;;;12.04;75.03;97312.75;6216860;23;20414;-80
2024/01/24 11:10:25;;;;;;;0.10;0.10;;;;;;;12.08;74.82;97319.28;6217909;23;20570;-77
2024/01/24 11:12:53;;;;;;;0.20;0.15;;;;;;;12.21;74.51;97303.00;6215351;23;20079;-77
2024/01/24 11:15:22;;;;;;;2.53;0.20;;;;;;;12.30;74.01;97317.66;6214908;23;20052;-78
2024/01/24 11:18:25;;;;;;;0.00;0.00;;;;;;;12.40;73.35;97327.91;6215568;23;20028;-78
2024/01/24 11:20:56;;;;;;;0.70;0.10;;;;;;;12.46;73.55;97328.97;6218290;23;20051;-78
2024/01/24 11:23:40;;;;;;;0.10;0.08;;;;;;;12.50;73.46;97338.13;6214762;23;20498;-78
2024/01/24 11:26:10;;;;;;;0.00;0.00;;;;;;;12.51;73.97;97351.03;6215744;23;20024;-78
2024/01/24 11:28:38;;;;;;;0.00;0.00;;;;;;;12.51;73.87;97345.78;6215301;23;20027;-77
2024/01/24 11:31:07;;;;;;;0.55;0.10;;;;;;;12.53;74.08;97348.25;6215245;23;20358;-78
2024/01/24 11:33:35;;;;;;;0.13;0.10;;;;;;;12.51;73.88;97356.25;6215049;23;20020;-78
2024/01/24 11:36:12;;;;;;;0.00;0.00;;;;;;;12.52;73.03;97362.31;6216086;23;20021;-77
2024/01/24 11:38:40;;;;;;;1.13;0.32;;;;;;;12.56;73.26;97353.13;6215254;23;20024;-78
2024/01/24 11:41:23;;;;;;;0.50;0.10;;;;;;;12.60;73.38;97349.16;6214855;23;20021;-77
2024/01/24 11:43:51;;;;;;;0.10;0.10;;;;;;;12.65;73.50;97341.59;6214996;23;20608;-78